D/T METAR WX W/SPE G/SPE TEMP DEWP FEEL
31/01/23 06:50 EGBB 310650Z 25010KT 190V280 9999 FEW030 08/05 Q1021 11.5mph 8°C 5°C 7.3°C
31/01/23 06:20 EGBB 310620Z 25007KT 9999 SCT020 BKN041 07/05 Q1022 8.1mph 7°C 5°C 6.3°C
31/01/23 04:50 EGBB 310450Z 21006KT 180V240 9999 BKN018 06/04 Q1022 6.9mph 6°C 4°C 5.0°C
30/01/23 21:50 EGBB 302150Z 21005KT 170V230 CAVOK 05/02 Q1026 5.8mph 5°C 2°C 3.4°C
30/01/23 12:50 EGBB 301250Z 30013KT 9999 FEW030 08/02 Q1025 15.0mph 8°C 2°C 6.4°C
30/01/23 11:50 EGBB 301150Z 30010KT 9999 FEW032 08/02 Q1025 11.5mph 8°C 2°C 6.4°C
30/01/23 10:50 EGBB 301050Z 29012KT 9999 FEW032 08/02 Q1025 13.8mph 8°C 2°C 6.4°C
30/01/23 08:20 EGBB 300820Z 27007KT 9999 BKN030 06/01 Q1024 8.1mph 6°C 1°C 4.1°C
30/01/23 06:50 EGBB 300650Z 26006KT 9999 BKN032 05/01 Q1023 6.9mph 5°C 1°C 3.1°C
09/01/23 06:50 EGBB 090650Z 24006KT 210V270 9999 BKN023 05/03 Q0993 6.9mph 5°C 3°C 3.7°C
09/01/23 06:20 EGBB 090620Z 21005KT 140V250 9999 FEW030 05/03 Q0993 5.8mph 5°C 3°C 3.7°C
09/01/23 05:50 EGBB 090550Z 22004KT 180V280 CAVOK 05/03 Q0992 4.6mph 5°C 3°C 3.7°C
09/01/23 05:20 EGBB 090520Z 17003KT CAVOK 05/03 Q0992 3.5mph 5°C 3°C 3.7°C
09/01/23 04:50 EGBB 090450Z 19004KT 170V240 CAVOK 05/03 Q0992 4.6mph 5°C 3°C 3.7°C
09/01/23 04:20 EGBB 090420Z 23006KT CAVOK 05/03 Q0992 6.9mph 5°C 3°C 3.7°C
09/01/23 03:50 EGBB 090350Z 22006KT CAVOK 05/03 Q0991 6.9mph 5°C 3°C 3.7°C
09/01/23 03:20 EGBB 090320Z 23008KT CAVOK 05/03 Q0991 9.2mph 5°C 3°C 3.7°C
09/01/23 02:50 EGBB 090250Z 21005KT 170V240 CAVOK 04/03 Q0990 5.8mph 4°C 3°C 2.7°C
09/01/23 01:50 EGBB 090150Z 24007KT CAVOK 04/03 Q0989 8.1mph 4°C 3°C 2.7°C
09/01/23 01:20 EGBB 090120Z 25007KT CAVOK 04/03 Q0989 8.1mph 4°C 3°C 2.7°C
09/01/23 00:50 EGBB 090050Z 25007KT CAVOK 04/03 Q0989 8.1mph 4°C 3°C 2.7°C
09/01/23 00:20 EGBB 090020Z 24006KT 210V270 9999 FEW038 05/03 Q0988 6.9mph 5°C 3°C 3.7°C
08/01/23 23:50 EGBB 082350Z 22007KT 9999 SCT035 BKN042 05/03 Q0988 8.1mph 5°C 3°C 3.7°C
08/01/23 23:20 EGBB 082320Z 18003KT 150V240 9999 FEW025 BKN031 04/03 Q0988 3.5mph 4°C 3°C 2.7°C
08/01/23 22:50 EGBB 082250Z 17003KT 9999 FEW032 04/02 Q0987 3.5mph 4°C 2°C 2.4°C
08/01/23 22:20 EGBB 082220Z 16003KT 9999 BKN032 04/02 Q0987 3.5mph 4°C 2°C 2.4°C
08/01/23 20:50 EGBB 082050Z 18008KT 9999 FEW039 04/02 Q0986 9.2mph 4°C 2°C 2.4°C
08/01/23 19:50 EGBB 081950Z 18008KT CAVOK 05/03 Q0986 9.2mph 5°C 3°C 3.7°C
08/01/23 19:20 EGBB 081920Z 19007KT 160V230 CAVOK 04/03 Q0987 8.1mph 4°C 3°C 2.7°C
08/01/23 18:50 EGBB 081850Z 20007KT CAVOK 04/03 Q0987 8.1mph 4°C 3°C 2.7°C
08/01/23 18:20 EGBB 081820Z 21007KT 170V250 CAVOK 05/02 Q0987 8.1mph 5°C 2°C 3.4°C
08/01/23 17:50 EGBB 081750Z 21006KT 160V240 CAVOK 05/02 Q0987 6.9mph 5°C 2°C 3.4°C
08/01/23 17:20 EGBB 081720Z 20007KT 160V230 CAVOK 06/02 Q0987 8.1mph 6°C 2°C 4.4°C
08/01/23 16:50 EGBB 081650Z 21007KT 180V250 9999 FEW020CB 06/02 Q0987 8.1mph 6°C 2°C 4.4°C
08/01/23 16:20 EGBB 081620Z 22007KT 180V250 9999 FEW020CB 07/04 Q0986 8.1mph 7°C 4°C 6.0°C
08/01/23 15:50 EGBB 081550Z 20005KT 170V240 9999 VCSH FEW015 FEW023CB 07/04 Q0986 VCSH 5.8mph 7°C 4°C 6.0°C
08/01/23 14:50 EGBB 081450Z 21007KT 160V240 9000 -RA BKN022 07/04 Q0986 -RA 8.1mph 7°C 4°C 6.0°C
08/01/23 14:20 EGBB 081420Z 21009KT 170V230 9999 VCSH BKN022 08/04 Q0986 VCSH 10.4mph 8°C 4°C 7.0°C
08/01/23 13:50 EGBB 081350Z 20011KT 170V230 9999 BKN025 08/04 Q0986 12.7mph 8°C 4°C 7.0°C
08/01/23 12:50 EGBB 081250Z 21011KT 180V250 9999 BKN021CB 08/05 Q0987 12.7mph 8°C 5°C 7.3°C
08/01/23 12:20 EGBB 081220Z 19014KT 9999 -SHRAGS BKN021CB 08/05 Q0987 -SHRA -SHGS 16.1mph 8°C 5°C 7.3°C
08/01/23 11:20 EGBB 081120Z 17012KT 9999 SCT026 08/05 Q0988 13.8mph 8°C 5°C 7.3°C
08/01/23 10:50 EGBB 081050Z 16012KT 9999 FEW026 07/05 Q0988 13.8mph 7°C 5°C 6.3°C
08/01/23 10:20 EGBB 081020Z 16010KT 9999 SCT025 06/05 Q0989 11.5mph 6°C 5°C 5.3°C
08/01/23 09:50 EGBB 080950Z 16010KT 9999 FEW027 06/04 Q0989 11.5mph 6°C 4°C 5.0°C
08/01/23 09:20 EGBB 080920Z 15009KT 9999 FEW045 05/04 Q0990 10.4mph 5°C 4°C 4.0°C
08/01/23 08:50 EGBB 080850Z 15008KT CAVOK 05/03 Q0990 9.2mph 5°C 3°C 3.7°C
08/01/23 08:20 EGBB 080820Z 17008KT 9999 FEW017 05/04 Q0991 9.2mph 5°C 4°C 4.0°C
08/01/23 07:50 EGBB 080750Z 17007KT 9999 FEW017 05/04 Q0991 8.1mph 5°C 4°C 4.0°C
08/01/23 07:20 EGBB 080720Z 19010KT 9999 SCT013 06/04 Q0991 11.5mph 6°C 4°C 5.0°C
08/01/23 06:50 EGBB 080650Z 18011KT 9999 SCT012 06/04 Q0991 12.7mph 6°C 4°C 5.0°C
08/01/23 06:20 EGBB 080620Z 18007KT 9999 -RA SCT012 BKN036 06/05 Q0991 -RA 8.1mph 6°C 5°C 5.3°C
08/01/23 05:50 EGBB 080550Z 19007KT 9999 SCT042 BKN049 06/05 Q0991 8.1mph 6°C 5°C 5.3°C
08/01/23 05:20 EGBB 080520Z 19006KT 150V210 9999 SCT033 BKN039 07/05 Q0992 6.9mph 7°C 5°C 6.3°C
08/01/23 04:50 EGBB 080450Z 20007KT 9999 -RA SCT043 07/05 Q0992 -RA 8.1mph 7°C 5°C 6.3°C
08/01/23 04:20 EGBB 080420Z 21008KT 160V240 9999 -RA FEW035 BKN044 07/05 Q0992 -RA 9.2mph 7°C 5°C 6.3°C
08/01/23 03:50 EGBB 080350Z 20009KT 170V240 9999 -RA SCT025 SCT033 BKN045 07/04 Q0992 -RA 10.4mph 7°C 4°C 6.0°C
08/01/23 03:20 EGBB 080320Z 20008KT 160V240 9999 SCT038 BKN044 07/04 Q0992 9.2mph 7°C 4°C 6.0°C
08/01/23 02:50 EGBB 080250Z 20009KT 150V230 CAVOK 07/04 Q0992 10.4mph 7°C 4°C 6.0°C
08/01/23 02:20 EGBB 080220Z 20010KT CAVOK 08/04 Q0992 11.5mph 8°C 4°C 7.0°C
08/01/23 01:50 EGBB 080150Z 20011KT 170V240 9999 SCT024 BKN032 08/05 Q0992 12.7mph 8°C 5°C 7.3°C
08/01/23 00:50 EGBB 080050Z 19010KT 9999 FEW018 08/05 Q0992 11.5mph 8°C 5°C 7.3°C
08/01/23 00:20 EGBB 080020Z 19009KT 160V230 9999 FEW029 08/05 Q0992 10.4mph 8°C 5°C 7.3°C
07/01/23 23:50 EGBB 072350Z 19011KT 160V230 9999 SCT020 BKN031 08/05 Q0993 12.7mph 8°C 5°C 7.3°C
07/01/23 22:50 EGBB 072250Z 19011KT 170V230 9999 BKN027 08/04 Q0992 12.7mph 8°C 4°C 7.0°C
07/01/23 22:20 EGBB 072220Z 19012KT 160V230 9999 FEW020 BKN024 BKN029 07/04 Q0993 13.8mph 7°C 4°C 6.0°C
07/01/23 21:50 EGBB 072150Z 19012KT 9999 BKN019 BKN024 OVC034 07/04 Q0993 13.8mph 7°C 4°C 6.0°C
07/01/23 21:20 EGBB 072120Z 19011KT 9999 BKN019 BKN027 OVC038 07/04 Q0993 12.7mph 7°C 4°C 6.0°C
07/01/23 20:50 EGBB 072050Z 19010G20KT 160V220 9999 SCT020 SCT024 BKN034 07/04 Q0993 11.5mph 23.0mph 7°C 4°C 6.0°C
07/01/23 20:20 EGBB 072020Z 19011KT 9999 FEW032 07/04 Q0993 12.7mph 7°C 4°C 6.0°C
07/01/23 19:50 EGBB 071950Z 19010KT 160V230 9999 FEW027 07/04 Q0993 11.5mph 7°C 4°C 6.0°C
07/01/23 18:50 EGBB 071850Z 21009KT 180V250 9999 FEW028 07/04 Q0992 10.4mph 7°C 4°C 6.0°C
07/01/23 18:20 EGBB 071820Z 22012KT 200V260 9999 -RA SCT023 08/05 Q0992 -RA 13.8mph 8°C 5°C 7.3°C
07/01/23 17:50 EGBB 071750Z 21009KT 9999 SCT023 08/06 Q0991 10.4mph 8°C 6°C 7.6°C
07/01/23 17:20 EGBB 071720Z 20011KT 9999 -RA SCT014CB BKN027 08/06 Q0991 -RA 12.7mph 8°C 6°C 7.6°C
07/01/23 16:50 EGBB 071650Z 20009KT 160V230 7000 -RA SCT015CB OVC020 08/06 Q0991 RESHRA -RA 10.4mph 8°C 6°C 7.6°C
07/01/23 16:20 EGBB 071620Z 19009KT 160V220 6000 -SHRA SCT017CB BKN026 09/07 Q0991 RESHRA -SHRA 10.4mph 9°C 7°C 9.0°C
07/01/23 15:50 EGBB 071550Z 18008KT 9999 4000SE -SHRA FEW015CB SCT032 10/07 Q0991 -SHRA 9.2mph 10°C 7°C 10.0°C
07/01/23 15:20 EGBB 071520Z 19008KT 150V230 9999 FEW016 SCT024CB 10/06 Q0992 9.2mph 10°C 6°C 9.6°C
07/01/23 14:50 EGBB 071450Z 19010KT 9999 FEW017 SCT027CB 11/07 Q0992 11.5mph 11°C 7°C 11.0°C
07/01/23 14:20 EGBB 071420Z 20009KT 170V230 9999 FEW012 SCT024CB 11/07 Q0992 10.4mph 11°C 7°C 11.0°C
07/01/23 13:20 EGBB 071320Z 19007KT 9999 FEW018CB SCT030 11/08 Q0993 8.1mph 11°C 8°C 11.4°C
07/01/23 12:50 EGBB 071250Z 20008KT 170V230 9999 SCT016 11/08 Q0993 9.2mph 11°C 8°C 11.4°C
07/01/23 12:20 EGBB 071220Z 20009KT 160V240 9999 VCSH SCT017CB 11/08 Q0993 VCSH 10.4mph 11°C 8°C 11.4°C
07/01/23 11:20 EGBB 071120Z 19010KT 150V230 9999 -RA BKN011 11/10 Q0994 RERA -RA 11.5mph 11°C 10°C 12.3°C
07/01/23 10:50 EGBB 071050Z 18013KT 9000 4400NW -RA BKN010 11/09 Q0994 -RA 15.0mph 11°C 9°C 11.8°C
07/01/23 10:20 EGBB 071020Z 18012KT 150V210 9999 4800N -RA BKN012 11/09 Q0994 RERA REDZ -RA 13.8mph 11°C 9°C 11.8°C
07/01/23 09:50 EGBB 070950Z 19012KT 3600 RADZ BKN010 OVC019 11/09 Q0994 REDZ RA DZ 13.8mph 11°C 9°C 11.8°C
07/01/23 09:20 EGBB 070920Z 18013KT 9999 -RA BKN012 11/09 Q0994 -RA 15.0mph 11°C 9°C 11.8°C
07/01/23 08:50 EGBB 070850Z 17014KT 7000 -RA BKN011 11/09 Q0995 -RA 16.1mph 11°C 9°C 11.8°C
07/01/23 08:20 EGBB 070820Z 17016KT 8000 -RA BKN011 11/09 Q0995 -RA 18.4mph 11°C 9°C 11.8°C
07/01/23 07:50 EGBB 070750Z 17018KT 7000 -RA BKN013 11/09 Q0995 -RA 20.7mph 11°C 9°C 11.8°C
07/01/23 07:20 EGBB 070720Z 17018KT 9000 -RA OVC013 11/09 Q0995 -RA 20.7mph 11°C 9°C 11.8°C
07/01/23 06:50 EGBB 070650Z 17017KT 9999 -RA BKN015 11/09 Q0996 -RA 19.6mph 11°C 9°C 11.8°C
07/01/23 06:20 EGBB 070620Z 17015KT 9999 -RA SCT014 BKN020 11/09 Q0996 -RA 17.3mph 11°C 9°C 11.8°C
07/01/23 05:50 EGBB 070550Z 17015KT 9999 -RA BKN016 BKN023 11/09 Q0997 -RA 17.3mph 11°C 9°C 11.8°C